createdAt,value
2023-02-04T00:02:04.730Z,4.80
2023-02-04T00:04:31.695Z,4.80
2023-02-04T00:06:58.643Z,4.80
2023-02-04T00:09:25.652Z,4.80
2023-02-04T00:11:52.616Z,4.80
2023-02-04T00:14:19.828Z,4.80
2023-02-04T00:16:46.784Z,4.80
2023-02-04T00:19:13.752Z,4.80
2023-02-04T00:21:40.727Z,4.80
2023-02-04T00:24:07.787Z,4.80
2023-02-04T00:26:34.762Z,4.80
2023-02-04T00:29:02.196Z,4.80
2023-02-04T00:31:29.281Z,4.80
2023-02-04T00:33:56.308Z,4.80
2023-02-04T00:36:23.284Z,4.80
2023-02-04T00:38:51.594Z,4.80
2023-02-04T00:41:18.566Z,4.80
2023-02-04T00:43:46.419Z,4.80
2023-02-04T00:46:13.466Z,4.80
2023-02-04T00:48:40.475Z,4.80
2023-02-04T00:51:07.455Z,4.80
2023-02-04T00:53:34.410Z,4.80
2023-02-04T00:56:01.376Z,4.80
2023-02-04T00:58:28.341Z,4.80
2023-02-04T01:00:55.390Z,4.80
2023-02-04T01:03:22.374Z,4.80
2023-02-04T01:05:49.451Z,4.80
2023-02-04T01:08:16.420Z,4.80
2023-02-04T01:10:43.398Z,4.80
2023-02-04T01:13:10.523Z,4.80
2023-02-04T01:15:37.549Z,4.80
2023-02-04T01:18:04.521Z,4.80
2023-02-04T01:20:31.777Z,4.80
2023-02-04T01:22:58.980Z,4.80
2023-02-04T01:25:25.959Z,4.80
2023-02-04T01:27:54.854Z,4.80
2023-02-04T01:30:21.852Z,4.80
2023-02-04T01:32:49.059Z,4.80
2023-02-04T01:35:16.052Z,4.80
2023-02-04T01:37:43.091Z,4.80
2023-02-04T01:40:10.520Z,4.80
2023-02-04T01:42:37.558Z,4.80
2023-02-04T01:45:06.529Z,4.80
2023-02-04T01:47:34.717Z,4.80
2023-02-04T01:50:01.741Z,4.70
2023-02-04T01:52:29.624Z,4.80
2023-02-04T01:54:56.609Z,4.80
2023-02-04T01:57:23.622Z,4.80
2023-02-04T01:59:52.835Z,4.80
2023-02-04T02:02:40.871Z,4.80
2023-02-04T02:05:08.960Z,4.80
2023-02-04T02:07:35.967Z,4.80
2023-02-04T02:10:04.092Z,4.80
2023-02-04T02:12:31.141Z,4.80
2023-02-04T02:14:58.340Z,4.80
2023-02-04T02:17:26.163Z,4.80
2023-02-04T02:19:53.161Z,4.80
2023-02-04T02:22:28.244Z,4.80
2023-02-04T02:24:55.286Z,4.80
2023-02-04T02:27:22.267Z,4.80
2023-02-04T02:29:50.196Z,4.80
2023-02-04T02:32:17.170Z,4.80
2023-02-04T02:34:44.217Z,4.80
2023-02-04T02:37:11.231Z,4.80
2023-02-04T02:39:38.563Z,4.80
2023-02-04T02:42:05.550Z,4.70
2023-02-04T02:44:32.633Z,4.80
2023-02-04T02:46:59.597Z,4.70
2023-02-04T02:49:27.644Z,4.70
2023-02-04T02:51:54.626Z,4.70
2023-02-04T02:54:22.856Z,4.70
2023-02-04T02:56:50.683Z,4.70
2023-02-04T02:59:18.104Z,4.60
2023-02-04T03:01:45.648Z,4.60
2023-02-04T03:04:13.107Z,4.60
2023-02-04T03:06:40.079Z,4.60
2023-02-04T03:09:07.628Z,4.60
2023-02-04T03:11:34.590Z,4.50
2023-02-04T03:14:01.671Z,4.50
2023-02-04T03:16:30.084Z,4.50
2023-02-04T03:18:57.156Z,4.50
2023-02-04T03:21:24.125Z,4.40
2023-02-04T03:23:51.415Z,4.40
2023-02-04T03:26:18.904Z,4.40
2023-02-04T03:28:46.002Z,4.40
2023-02-04T03:31:13.094Z,4.40
2023-02-04T03:33:40.205Z,4.30
2023-02-04T03:36:07.649Z,4.30
2023-02-04T03:38:34.685Z,4.30
2023-02-04T03:41:01.699Z,4.20
2023-02-04T03:43:28.663Z,4.20
2023-02-04T03:45:55.680Z,4.20
2023-02-04T03:48:22.638Z,4.20
2023-02-04T03:50:49.621Z,4.20
2023-02-04T03:53:16.613Z,4.20
2023-02-04T03:55:43.584Z,4.20
2023-02-04T03:58:10.647Z,4.20
2023-02-04T04:00:37.663Z,4.20
2023-02-04T04:03:04.764Z,4.20
2023-02-04T04:05:32.445Z,4.20
2023-02-04T04:07:59.451Z,4.20
2023-02-04T04:10:26.564Z,4.20
2023-02-04T04:12:53.531Z,4.20
2023-02-04T04:15:20.589Z,4.20
2023-02-04T04:17:47.563Z,4.20
2023-02-04T04:20:14.564Z,4.10
2023-02-04T04:22:41.532Z,4.10
2023-02-04T04:25:08.501Z,4.10
2023-02-04T04:27:35.504Z,4.10
2023-02-04T04:30:02.938Z,4.00
2023-02-04T04:32:29.919Z,4.00
2023-02-04T04:34:57.156Z,4.00
2023-02-04T04:37:24.135Z,3.90
2023-02-04T04:39:51.106Z,3.90
2023-02-04T04:42:18.072Z,3.90
2023-02-04T04:44:45.060Z,3.80
2023-02-04T04:47:12.032Z,3.80
2023-02-04T04:49:39.027Z,3.80
2023-02-04T04:52:06.011Z,3.70
2023-02-04T04:54:33.036Z,3.70
2023-02-04T04:57:00.133Z,3.70
2023-02-04T04:59:27.116Z,3.70
2023-02-04T05:01:54.149Z,3.60
2023-02-04T05:04:21.244Z,3.60
2023-02-04T05:06:48.442Z,3.50
2023-02-04T05:09:17.347Z,3.50
2023-02-04T05:11:44.307Z,3.50
2023-02-04T05:14:11.326Z,3.50
2023-02-04T05:16:38.496Z,3.50
2023-02-04T05:19:05.782Z,3.50
2023-02-04T05:21:32.733Z,3.50
2023-02-04T05:23:59.721Z,3.40
2023-02-04T05:26:30.457Z,3.40
2023-02-04T05:29:00.241Z,3.40
2023-02-04T05:31:27.297Z,3.40
2023-02-04T05:33:54.550Z,3.40
2023-02-04T05:36:21.527Z,3.40
2023-02-04T05:38:48.516Z,3.50
2023-02-04T05:41:15.481Z,3.50
2023-02-04T05:43:43.017Z,3.50
2023-02-04T05:46:10.102Z,3.50
2023-02-04T05:48:37.181Z,3.50
2023-02-04T05:51:04.198Z,3.50
2023-02-04T05:53:31.389Z,3.50
2023-02-04T05:55:58.360Z,3.50
2023-02-04T05:58:25.336Z,3.50
2023-02-04T06:00:52.329Z,3.50
2023-02-04T06:03:19.481Z,3.50
2023-02-04T06:05:46.626Z,3.50
2023-02-04T06:08:15.749Z,3.50
2023-02-04T06:10:42.718Z,3.50
2023-02-04T06:13:09.694Z,3.50
2023-02-04T06:15:36.856Z,3.40
2023-02-04T06:18:03.950Z,3.50
2023-02-04T06:20:31.271Z,3.50
2023-02-04T06:22:58.504Z,3.50
2023-02-04T06:25:25.544Z,3.50
2023-02-04T06:27:52.608Z,3.50
2023-02-04T06:30:19.672Z,3.50
2023-02-04T06:32:46.690Z,3.50
2023-02-04T06:35:15.194Z,3.50
2023-02-04T06:37:42.254Z,3.50
2023-02-04T06:40:10.314Z,3.50
2023-02-04T06:42:37.286Z,3.50
2023-02-04T06:45:04.480Z,3.50
2023-02-04T06:47:31.448Z,3.50
2023-02-04T06:49:58.421Z,3.50
2023-02-04T06:52:25.401Z,3.60
2023-02-04T06:54:52.392Z,3.60
2023-02-04T06:57:19.347Z,3.50
2023-02-04T06:59:47.105Z,3.60
2023-02-04T07:02:14.207Z,3.60
2023-02-04T07:04:43.617Z,3.60
2023-02-04T07:07:11.045Z,3.50
2023-02-04T07:09:40.414Z,3.60
2023-02-04T07:12:07.614Z,3.60
2023-02-04T07:14:34.600Z,3.60
2023-02-04T07:17:01.678Z,3.60
2023-02-04T07:19:28.680Z,3.60
2023-02-04T07:21:56.845Z,3.60
2023-02-04T07:24:24.138Z,3.60
2023-02-04T07:26:51.181Z,3.60
2023-02-04T07:29:25.575Z,3.60
2023-02-04T07:31:53.296Z,3.60
2023-02-04T07:34:20.409Z,3.60
2023-02-04T07:36:47.476Z,3.60
2023-02-04T07:39:14.554Z,3.60
2023-02-04T07:41:41.546Z,3.60
2023-02-04T07:44:08.543Z,3.60
2023-02-04T07:46:35.645Z,3.60
2023-02-04T07:49:02.862Z,3.60
2023-02-04T07:51:29.933Z,3.60
2023-02-04T07:53:56.980Z,3.70
2023-02-04T07:56:24.070Z,3.70
2023-02-04T07:58:51.171Z,3.60
2023-02-04T08:01:18.195Z,3.60
2023-02-04T08:03:45.244Z,3.60
2023-02-04T08:06:12.376Z,3.70
2023-02-04T08:08:39.356Z,3.70
2023-02-04T08:11:06.399Z,3.70
2023-02-04T08:13:33.391Z,3.70
2023-02-04T08:16:00.674Z,3.70
2023-02-04T08:18:27.777Z,3.70
2023-02-04T08:20:54.824Z,3.70
2023-02-04T08:23:21.804Z,3.80
2023-02-04T08:25:48.848Z,3.80
2023-02-04T08:28:15.961Z,3.80
2023-02-04T08:30:43.062Z,3.80
2023-02-04T08:33:10.059Z,3.80
2023-02-04T08:35:37.021Z,3.90
2023-02-04T08:38:04.062Z,3.90
2023-02-04T08:40:31.407Z,3.90
2023-02-04T08:42:58.617Z,3.90
2023-02-04T08:45:25.647Z,4.00
2023-02-04T08:47:52.737Z,4.00
2023-02-04T08:50:19.734Z,3.90
2023-02-04T08:52:46.958Z,3.90
2023-02-04T08:55:14.201Z,4.00
2023-02-04T08:57:41.190Z,4.00
2023-02-04T09:00:08.846Z,4.10
2023-02-04T09:02:35.825Z,4.20
2023-02-04T09:05:02.814Z,4.30
2023-02-04T09:07:29.788Z,4.40
2023-02-04T09:09:56.773Z,4.40
2023-02-04T09:12:23.775Z,4.50
2023-02-04T09:14:50.825Z,4.50
2023-02-04T09:17:17.859Z,4.50
2023-02-04T09:19:44.919Z,4.50
2023-02-04T09:22:13.208Z,4.50
2023-02-04T09:24:40.187Z,4.60
2023-02-04T09:27:07.160Z,4.60
2023-02-04T09:29:34.207Z,4.60
2023-02-04T09:32:01.245Z,4.70
2023-02-04T09:34:28.259Z,4.70
2023-02-04T09:36:55.314Z,4.70
2023-02-04T09:39:22.281Z,4.60
2023-02-04T09:41:49.539Z,4.60
2023-02-04T09:44:17.627Z,4.60
2023-02-04T09:46:49.057Z,4.60
2023-02-04T09:49:16.252Z,4.70
2023-02-04T09:51:43.880Z,4.60
2023-02-04T09:54:15.067Z,4.70
2023-02-04T09:56:42.094Z,4.70
2023-02-04T09:59:12.528Z,4.60
2023-02-04T10:01:39.780Z,4.60
2023-02-04T10:04:08.939Z,4.70
2023-02-04T10:06:37.357Z,4.70
2023-02-04T10:09:04.320Z,4.60
2023-02-04T10:11:32.215Z,4.60
2023-02-04T10:13:59.279Z,4.50
2023-02-04T10:16:30.117Z,4.50
2023-02-04T10:18:58.094Z,4.50
2023-02-04T10:21:28.950Z,4.50
2023-02-04T10:23:56.962Z,4.60
2023-02-04T10:26:25.323Z,4.60
2023-02-04T10:28:57.866Z,4.50
2023-02-04T10:31:38.187Z,4.50
2023-02-04T10:34:05.315Z,4.40
2023-02-04T10:36:32.362Z,4.30
2023-02-04T10:39:00.279Z,4.20
2023-02-04T10:41:27.257Z,4.10
2023-02-04T10:44:04.554Z,4.10
2023-02-04T10:46:32.013Z,4.00
2023-02-04T10:48:58.998Z,4.00
2023-02-04T10:51:26.033Z,4.00
2023-02-04T10:54:11.883Z,4.10
2023-02-04T10:56:38.948Z,4.10
2023-02-04T10:59:06.150Z,4.20
2023-02-04T11:01:33.229Z,4.20
2023-02-04T11:04:00.353Z,4.20
2023-02-04T11:06:27.743Z,4.20
2023-02-04T11:08:55.279Z,4.20
2023-02-04T11:11:25.724Z,4.20
2023-02-04T11:13:53.065Z,4.20
2023-02-04T11:16:30.353Z,4.20
2023-02-04T11:19:01.165Z,4.20
2023-02-04T11:21:34.301Z,4.10
2023-02-04T11:24:16.515Z,4.00
2023-02-04T11:26:44.249Z,4.10
2023-02-04T11:29:26.595Z,4.10
2023-02-04T11:31:57.875Z,4.00
2023-02-04T11:34:26.268Z,3.90
2023-02-04T11:36:59.596Z,4.00
2023-02-04T11:39:36.989Z,4.00
2023-02-04T11:42:14.997Z,4.00
2023-02-04T11:44:41.975Z,4.10
2023-02-04T11:47:09.656Z,4.10
2023-02-04T11:49:36.740Z,4.10
2023-02-04T11:52:08.508Z,4.10
2023-02-04T11:54:36.145Z,4.10
2023-02-04T11:57:03.360Z,4.20
2023-02-04T11:59:30.412Z,4.20
2023-02-04T12:02:07.299Z,4.20
2023-02-04T12:04:34.355Z,4.10
2023-02-04T12:07:03.180Z,4.10
2023-02-04T12:09:30.743Z,4.00
2023-02-04T12:11:59.058Z,4.00
2023-02-04T12:14:31.371Z,4.00
2023-02-04T12:16:58.426Z,4.00
2023-02-04T12:19:27.567Z,4.00
2023-02-04T12:21:55.708Z,4.00
2023-02-04T12:24:22.784Z,4.00
2023-02-04T12:26:49.912Z,4.10
2023-02-04T12:29:16.889Z,4.10
2023-02-04T12:31:44.277Z,4.10
2023-02-04T12:34:11.329Z,4.20
2023-02-04T12:36:38.324Z,4.20
2023-02-04T12:39:05.311Z,4.20
2023-02-04T12:41:32.367Z,4.20
2023-02-04T12:44:01.172Z,4.20
2023-02-04T12:46:28.704Z,4.20
2023-02-04T12:48:56.132Z,4.20
2023-02-04T12:51:23.516Z,4.30
2023-02-04T12:53:50.596Z,4.30
2023-02-04T12:56:20.395Z,4.30
2023-02-04T12:58:47.396Z,4.40
2023-02-04T13:01:14.455Z,4.40
2023-02-04T13:03:41.479Z,4.30
2023-02-04T13:06:08.474Z,4.30
2023-02-04T13:08:35.465Z,4.30
2023-02-04T13:11:02.531Z,4.30
2023-02-04T13:13:29.506Z,4.30
2023-02-04T13:15:56.534Z,4.30
2023-02-04T13:18:23.556Z,4.30
2023-02-04T13:20:50.579Z,4.30
2023-02-04T13:23:17.562Z,4.20
2023-02-04T13:25:45.106Z,4.20
2023-02-04T13:28:12.173Z,4.20
2023-02-04T13:30:39.171Z,4.10
2023-02-04T13:33:06.191Z,4.10
2023-02-04T13:35:33.546Z,4.10
2023-02-04T13:38:00.731Z,4.10
2023-02-04T13:40:27.808Z,4.10
2023-02-04T13:42:54.792Z,4.10
2023-02-04T13:45:22.005Z,4.10
2023-02-04T13:47:49.202Z,4.10
2023-02-04T13:50:16.496Z,4.10
2023-02-04T13:52:43.496Z,4.00
2023-02-04T13:55:10.607Z,4.00
2023-02-04T13:57:37.879Z,4.00
2023-02-04T14:00:06.041Z,4.00
2023-02-04T14:02:39.389Z,3.90
2023-02-04T14:05:06.913Z,3.90
2023-02-04T14:07:34.054Z,3.90
2023-02-04T14:10:01.115Z,3.90
2023-02-04T14:12:28.161Z,3.90
2023-02-04T14:14:55.124Z,4.00
2023-02-04T14:17:22.148Z,4.00
2023-02-04T14:19:49.134Z,4.00
2023-02-04T14:22:16.171Z,4.10
2023-02-04T14:24:43.509Z,4.10
2023-02-04T14:27:10.657Z,4.10
2023-02-04T14:29:37.671Z,4.10
2023-02-04T14:32:04.840Z,4.10
2023-02-04T14:34:31.847Z,4.20
2023-02-04T14:36:58.892Z,4.20
2023-02-04T14:39:25.896Z,4.20
2023-02-04T14:41:53.061Z,4.20
2023-02-04T14:44:20.670Z,4.10
2023-02-04T14:46:48.742Z,4.10
2023-02-04T14:49:16.099Z,4.10
2023-02-04T14:51:43.090Z,4.10
2023-02-04T14:54:10.164Z,4.10
2023-02-04T14:56:37.223Z,4.10
2023-02-04T14:59:04.442Z,4.10
2023-02-04T15:01:31.674Z,4.10
2023-02-04T15:03:58.733Z,4.10
2023-02-04T15:06:25.704Z,4.00
2023-02-04T15:08:52.824Z,4.00
2023-02-04T15:11:19.891Z,4.00
2023-02-04T15:13:46.938Z,4.00
2023-02-04T15:16:14.750Z,4.00
2023-02-04T15:18:42.237Z,4.00
2023-02-04T15:21:09.618Z,3.90
2023-02-04T15:23:36.640Z,3.90
2023-02-04T15:26:03.802Z,3.90
2023-02-04T15:28:31.388Z,3.90
2023-02-04T15:30:58.777Z,3.90
2023-02-04T15:33:25.859Z,3.80
2023-02-04T15:35:52.900Z,3.80
2023-02-04T15:38:19.944Z,3.80
2023-02-04T15:40:46.954Z,3.80
2023-02-04T15:43:13.935Z,3.80
2023-02-04T15:45:44.076Z,3.80
2023-02-04T15:48:11.164Z,3.80
2023-02-04T15:50:38.418Z,3.70
2023-02-04T15:53:06.571Z,3.70
2023-02-04T15:55:33.684Z,3.70
2023-02-04T15:58:00.667Z,3.70
2023-02-04T16:00:27.694Z,3.70
2023-02-04T16:02:54.726Z,3.60
2023-02-04T16:05:21.818Z,3.60
2023-02-04T16:07:48.914Z,3.60
2023-02-04T16:10:18.148Z,3.50
2023-02-04T16:12:47.247Z,3.50
2023-02-04T16:15:14.777Z,3.50
2023-02-04T16:17:41.759Z,3.50
2023-02-04T16:20:09.231Z,3.50
2023-02-04T16:22:36.343Z,3.40
2023-02-04T16:25:03.672Z,3.40
2023-02-04T16:27:31.792Z,3.40
2023-02-04T16:29:58.802Z,3.30
2023-02-04T16:32:26.035Z,3.30
2023-02-04T16:34:53.679Z,3.30
2023-02-04T16:37:20.767Z,3.30
2023-02-04T16:39:48.921Z,3.30
2023-02-04T16:42:15.904Z,3.30
2023-02-04T16:44:42.990Z,3.30
2023-02-04T16:47:09.975Z,3.20
2023-02-04T16:49:36.985Z,3.20
2023-02-04T16:52:05.075Z,3.20
2023-02-04T16:54:32.229Z,3.20
2023-02-04T16:57:03.623Z,3.20
2023-02-04T16:59:30.637Z,3.20
2023-02-04T17:01:58.074Z,3.10
2023-02-04T17:04:25.193Z,3.10
2023-02-04T17:06:52.342Z,3.10
2023-02-04T17:09:19.366Z,3.10
2023-02-04T17:11:46.350Z,3.10
2023-02-04T17:14:16.267Z,3.10
2023-02-04T17:16:43.432Z,3.00
2023-02-04T17:19:10.530Z,3.10
2023-02-04T17:21:40.653Z,3.10
2023-02-04T17:24:07.761Z,3.00
2023-02-04T17:26:37.856Z,3.00
2023-02-04T17:29:14.506Z,3.00
2023-02-04T17:31:44.528Z,3.00
2023-02-04T17:34:11.612Z,2.90
2023-02-04T17:36:38.880Z,2.90
2023-02-04T17:39:06.044Z,2.90
2023-02-04T17:41:33.048Z,2.90
2023-02-04T17:44:00.055Z,2.90
2023-02-04T17:46:27.153Z,2.80
2023-02-04T17:48:54.206Z,2.80
2023-02-04T17:51:21.174Z,2.80
2023-02-04T17:53:48.205Z,2.80
2023-02-04T17:56:15.251Z,2.70
2023-02-04T17:58:42.355Z,2.70
2023-02-04T18:01:13.769Z,2.70
2023-02-04T18:03:45.895Z,2.70
2023-02-04T18:06:16.078Z,2.60
2023-02-04T18:08:43.076Z,2.60
2023-02-04T18:11:18.420Z,2.60
2023-02-04T18:13:45.452Z,2.60
2023-02-04T18:16:31.769Z,2.60
2023-02-04T18:19:18.417Z,2.60
2023-02-04T18:21:46.463Z,2.50
2023-02-04T18:24:22.200Z,2.50
2023-02-04T18:26:50.591Z,2.50
2023-02-04T18:29:26.878Z,2.40
2023-02-04T18:31:55.354Z,2.40
2023-02-04T18:34:42.781Z,2.40
2023-02-04T18:37:19.243Z,2.40
2023-02-04T18:39:46.302Z,2.30
2023-02-04T18:42:13.878Z,2.30
2023-02-04T18:44:40.964Z,2.20
2023-02-04T18:47:29.428Z,2.20
2023-02-04T18:49:56.515Z,2.20
2023-02-04T18:52:23.551Z,2.20
2023-02-04T18:54:58.144Z,2.20
2023-02-04T18:57:35.864Z,2.20
2023-02-04T19:00:09.156Z,2.10
2023-02-04T19:02:37.075Z,2.10
2023-02-04T19:05:13.134Z,2.10
2023-02-04T19:07:40.816Z,2.10
2023-02-04T19:10:26.672Z,2.00
2023-02-04T19:12:54.116Z,2.00
2023-02-04T19:15:34.002Z,2.00
2023-02-04T19:18:01.564Z,2.00
2023-02-04T19:20:28.549Z,1.90
2023-02-04T19:22:56.836Z,1.90
2023-02-04T19:25:30.812Z,1.90
2023-02-04T19:27:58.856Z,1.90
2023-02-04T19:30:28.965Z,1.80
2023-02-04T19:32:57.337Z,1.70
2023-02-04T19:35:28.502Z,1.70
2023-02-04T19:38:00.443Z,1.70
2023-02-04T19:40:34.563Z,1.70
2023-02-04T19:43:07.768Z,1.70
2023-02-04T19:45:35.351Z,1.60
2023-02-04T19:48:03.139Z,1.60
2023-02-04T19:50:33.199Z,1.50
2023-02-04T19:53:09.340Z,1.50
2023-02-04T19:55:45.856Z,1.50
2023-02-04T19:58:22.094Z,1.50
2023-02-04T20:00:58.314Z,1.50
2023-02-04T20:03:30.993Z,1.40
2023-02-04T20:05:59.001Z,1.40
2023-02-04T20:08:42.330Z,1.40
2023-02-04T20:11:23.278Z,1.30
2023-02-04T20:13:50.355Z,1.30
2023-02-04T20:16:38.145Z,1.30
2023-02-04T20:19:17.446Z,1.30
2023-02-04T20:22:00.234Z,1.30
2023-02-04T20:24:28.877Z,1.20
2023-02-04T20:26:55.864Z,1.20
2023-02-04T20:29:23.049Z,1.10
2023-02-04T20:31:50.142Z,1.10
2023-02-04T20:34:22.144Z,1.10
2023-02-04T20:36:49.776Z,1.00
2023-02-04T20:39:24.255Z,1.00
2023-02-04T20:41:51.300Z,1.00
2023-02-04T20:44:27.964Z,1.00
2023-02-04T20:46:57.739Z,1.00
2023-02-04T20:49:25.326Z,0.90
2023-02-04T20:51:56.256Z,0.90
2023-02-04T20:54:23.265Z,0.90
2023-02-04T20:56:50.282Z,0.90
2023-02-04T20:59:26.658Z,0.90
2023-02-04T21:01:53.793Z,0.90
2023-02-04T21:04:32.346Z,0.90
2023-02-04T21:07:00.994Z,0.90
2023-02-04T21:09:29.298Z,0.90
2023-02-04T21:11:56.367Z,0.90
2023-02-04T21:14:23.587Z,0.90
2023-02-04T21:16:50.629Z,0.90
2023-02-04T21:19:17.623Z,0.90
2023-02-04T21:21:44.796Z,0.90
2023-02-04T21:24:11.863Z,0.90
2023-02-04T21:26:39.505Z,0.90
2023-02-04T21:29:06.538Z,0.90
2023-02-04T21:31:33.702Z,0.90
2023-02-04T21:34:00.738Z,0.90
2023-02-04T21:36:27.893Z,0.90
2023-02-04T21:38:55.357Z,0.90
2023-02-04T21:41:22.423Z,0.90
2023-02-04T21:43:49.658Z,1.00
2023-02-04T21:46:17.264Z,0.90
2023-02-04T21:48:44.650Z,0.90
2023-02-04T21:51:12.148Z,0.90
2023-02-04T21:53:39.230Z,0.90
2023-02-04T21:56:06.650Z,0.90
2023-02-04T21:58:33.753Z,1.00
2023-02-04T22:01:02.599Z,1.00
2023-02-04T22:03:29.722Z,1.00
2023-02-04T22:05:56.763Z,1.00
2023-02-04T22:08:23.938Z,1.00
2023-02-04T22:10:51.004Z,1.00
2023-02-04T22:13:18.067Z,1.00
2023-02-04T22:15:45.194Z,1.00
2023-02-04T22:18:12.278Z,1.00
2023-02-04T22:20:39.654Z,1.00
2023-02-04T22:23:06.676Z,1.00
2023-02-04T22:25:34.175Z,1.00
2023-02-04T22:28:01.443Z,1.00
2023-02-04T22:30:28.565Z,1.00
2023-02-04T22:32:56.731Z,1.00
2023-02-04T22:35:23.817Z,1.00
2023-02-04T22:37:50.822Z,1.00
2023-02-04T22:40:17.901Z,1.00
2023-02-04T22:42:45.040Z,1.00
2023-02-04T22:45:12.939Z,0.90
2023-02-04T22:47:42.146Z,0.90
2023-02-04T22:50:09.303Z,0.90
2023-02-04T22:52:36.704Z,0.90
2023-02-04T22:55:03.814Z,0.90
2023-02-04T22:57:30.830Z,0.90
2023-02-04T22:59:57.866Z,0.90
2023-02-04T23:02:24.899Z,0.90
2023-02-04T23:04:51.936Z,0.80
2023-02-04T23:07:18.941Z,0.80
2023-02-04T23:09:46.083Z,0.80
2023-02-04T23:12:13.192Z,0.80
2023-02-04T23:14:44.621Z,0.80
2023-02-04T23:17:11.991Z,0.80
2023-02-04T23:19:39.139Z,0.80
2023-02-04T23:22:06.315Z,0.70
2023-02-04T23:24:33.385Z,0.70
2023-02-04T23:27:00.860Z,0.70
2023-02-04T23:29:28.436Z,0.70
2023-02-04T23:31:55.866Z,0.60
2023-02-04T23:34:22.896Z,0.60
2023-02-04T23:36:53.385Z,0.60
2023-02-04T23:39:23.387Z,0.60
2023-02-04T23:41:50.570Z,0.60
2023-02-04T23:44:17.640Z,0.60
2023-02-04T23:46:44.808Z,0.50
2023-02-04T23:49:11.818Z,0.50
2023-02-04T23:51:38.855Z,0.50
2023-02-04T23:54:06.976Z,0.40
2023-02-04T23:56:34.178Z,0.40
2023-02-04T23:59:01.714Z,0.40
